createdAt,value
2024-01-05T00:00:47.128Z,7.46
2024-01-05T00:03:14.944Z,7.43
2024-01-05T00:05:42.726Z,7.40
2024-01-05T00:08:10.336Z,7.36
2024-01-05T00:10:37.957Z,7.35
2024-01-05T00:13:05.404Z,7.34
2024-01-05T00:15:33.690Z,7.30
2024-01-05T00:18:01.466Z,7.26
2024-01-05T00:20:29.118Z,7.19
2024-01-05T00:22:56.777Z,7.13
2024-01-05T00:25:24.344Z,7.11
2024-01-05T00:27:52.199Z,7.08
2024-01-05T00:30:20.371Z,7.03
2024-01-05T00:32:48.108Z,6.99
2024-01-05T00:35:15.802Z,6.90
2024-01-05T00:37:43.258Z,6.81
2024-01-05T00:40:11.134Z,6.80
2024-01-05T00:42:38.704Z,6.81
2024-01-05T00:45:07.182Z,6.81
2024-01-05T00:47:34.643Z,6.83
2024-01-05T00:50:02.314Z,6.86
2024-01-05T00:52:29.766Z,6.88
2024-01-05T00:54:57.359Z,6.87
2024-01-05T00:57:25.129Z,6.86
2024-01-05T00:59:52.651Z,6.86
2024-01-05T01:02:20.189Z,6.88
2024-01-05T01:04:47.737Z,6.91
2024-01-05T01:07:15.333Z,6.93
2024-01-05T01:09:43.086Z,6.95
2024-01-05T01:12:10.573Z,6.95
2024-01-05T01:14:38.089Z,6.95
2024-01-05T01:17:05.529Z,6.97
2024-01-05T01:19:33.225Z,7.00
2024-01-05T01:22:00.979Z,7.02
2024-01-05T01:24:28.967Z,7.02
2024-01-05T01:26:56.617Z,6.99
2024-01-05T01:29:24.669Z,6.97
2024-01-05T01:31:52.158Z,6.96
2024-01-05T01:34:19.826Z,6.96
2024-01-05T01:36:47.486Z,6.98
2024-01-05T01:39:15.047Z,6.99
2024-01-05T01:41:43.080Z,7.00
2024-01-05T01:44:10.573Z,7.00
2024-01-05T01:46:38.044Z,7.01
2024-01-05T01:49:05.897Z,7.02
2024-01-05T01:51:33.776Z,7.04
2024-01-05T01:54:01.338Z,7.02
2024-01-05T01:56:28.946Z,7.02
2024-01-05T01:58:56.312Z,7.03
2024-01-05T02:01:23.941Z,7.03
2024-01-05T02:03:52.092Z,7.02
2024-01-05T02:06:19.732Z,6.99
2024-01-05T02:08:48.104Z,6.98
2024-01-05T02:11:15.642Z,6.98
2024-01-05T02:13:43.534Z,7.00
2024-01-05T02:16:10.961Z,6.99
2024-01-05T02:18:38.708Z,7.01
2024-01-05T02:21:06.417Z,7.03
2024-01-05T02:23:33.810Z,7.07
2024-01-05T02:26:04.130Z,7.10
2024-01-05T02:28:31.663Z,7.14
2024-01-05T02:30:59.313Z,7.17
2024-01-05T02:33:27.169Z,7.19
2024-01-05T02:35:54.891Z,7.22
2024-01-05T02:38:22.419Z,7.22
2024-01-05T02:40:50.037Z,7.21
2024-01-05T02:43:17.599Z,7.22
2024-01-05T02:45:45.155Z,7.23
2024-01-05T02:48:12.889Z,7.24
2024-01-05T02:50:40.577Z,7.25
2024-01-05T02:53:08.034Z,7.27
2024-01-05T02:55:35.507Z,7.27
2024-01-05T02:58:03.531Z,7.28
2024-01-05T03:00:31.331Z,7.30
2024-01-05T03:02:59.017Z,7.33
2024-01-05T03:05:26.622Z,7.36
2024-01-05T03:07:54.147Z,7.37
2024-01-05T03:10:22.281Z,7.39
2024-01-05T03:12:52.865Z,7.38
2024-01-05T03:15:20.393Z,7.36
2024-01-05T03:17:49.429Z,7.31
2024-01-05T03:20:18.998Z,7.28
2024-01-05T03:22:46.749Z,7.22
2024-01-05T03:25:14.610Z,7.13
2024-01-05T03:27:42.161Z,7.07
2024-01-05T03:30:09.915Z,7.03
2024-01-05T03:32:37.405Z,6.98
2024-01-05T03:35:05.529Z,6.94
2024-01-05T03:37:33.000Z,6.95
2024-01-05T03:40:00.508Z,7.00
2024-01-05T03:42:27.950Z,7.05
2024-01-05T03:44:55.396Z,7.10
2024-01-05T03:47:22.859Z,7.12
2024-01-05T03:49:50.423Z,7.10
2024-01-05T03:52:17.842Z,7.09
2024-01-05T03:54:45.354Z,7.12
2024-01-05T03:57:12.917Z,7.18
2024-01-05T03:59:42.382Z,7.22
2024-01-05T04:05:30.342Z,7.28
2024-01-05T04:07:57.899Z,7.28
2024-01-05T04:10:25.376Z,7.30
2024-01-05T04:12:52.867Z,7.34
2024-01-05T04:15:20.513Z,7.37
2024-01-05T04:17:48.841Z,7.38
2024-01-05T04:20:16.514Z,7.40
2024-01-05T04:22:44.186Z,7.39
2024-01-05T04:25:11.763Z,7.33
2024-01-05T04:27:39.360Z,7.29
2024-01-05T04:30:07.172Z,7.22
2024-01-05T04:32:34.879Z,7.13
2024-01-05T04:35:02.464Z,7.09
2024-01-05T04:37:30.245Z,7.05
2024-01-05T04:39:57.909Z,7.04
2024-01-05T04:42:28.142Z,7.05
2024-01-05T04:44:55.803Z,7.00
2024-01-05T04:47:23.482Z,6.99
2024-01-05T04:49:50.974Z,7.02
2024-01-05T04:52:18.595Z,7.04
2024-01-05T04:54:46.129Z,7.06
2024-01-05T04:57:13.715Z,7.08
2024-01-05T04:59:42.800Z,7.10
2024-01-05T05:02:10.271Z,7.12
2024-01-05T05:04:37.856Z,7.13
2024-01-05T05:07:05.514Z,7.15
2024-01-05T05:09:33.158Z,7.20
2024-01-05T05:12:00.866Z,7.21
2024-01-05T05:14:28.341Z,7.20
2024-01-05T05:16:56.012Z,7.20
2024-01-05T05:19:23.812Z,7.21
2024-01-05T05:21:51.438Z,7.20
2024-01-05T05:24:19.061Z,7.17
2024-01-05T05:26:46.760Z,7.10
2024-01-05T05:29:14.739Z,7.01
2024-01-05T05:31:42.514Z,6.96
2024-01-05T05:34:10.430Z,6.93
2024-01-05T05:36:38.171Z,6.85
2024-01-05T05:39:05.807Z,6.82
2024-01-05T05:41:33.349Z,6.79
2024-01-05T05:44:00.826Z,6.75
2024-01-05T05:46:28.378Z,6.69
2024-01-05T05:48:56.254Z,6.64
2024-01-05T05:51:24.227Z,6.57
2024-01-05T05:53:51.685Z,6.53
2024-01-05T05:56:19.539Z,6.52
2024-01-05T05:58:47.082Z,6.53
2024-01-05T06:01:14.784Z,6.59
2024-01-05T06:03:42.486Z,6.67
2024-01-05T06:06:16.958Z,6.73
2024-01-05T06:08:44.589Z,6.75
2024-01-05T06:11:13.621Z,6.78
2024-01-05T06:13:41.173Z,6.86
2024-01-05T06:16:08.823Z,6.94
2024-01-05T06:18:36.564Z,7.03
2024-01-05T06:21:04.356Z,7.09
2024-01-05T06:23:32.185Z,7.14
2024-01-05T06:25:59.759Z,7.18
2024-01-05T06:28:28.399Z,7.23
2024-01-05T06:30:56.213Z,7.26
2024-01-05T06:33:23.944Z,7.29
2024-01-05T06:35:51.626Z,7.31
2024-01-05T06:38:19.395Z,7.34
2024-01-05T06:40:47.399Z,7.37
2024-01-05T06:43:14.869Z,7.41
2024-01-05T06:45:42.370Z,7.44
2024-01-05T06:48:10.128Z,7.48
2024-01-05T06:50:38.047Z,7.50
2024-01-05T06:53:05.977Z,7.50
2024-01-05T06:55:33.659Z,7.52
2024-01-05T06:58:03.008Z,7.52
2024-01-05T07:00:31.037Z,7.52
2024-01-05T07:02:58.831Z,7.52
2024-01-05T07:05:26.437Z,7.51
2024-01-05T07:07:54.097Z,7.53
2024-01-05T07:10:21.593Z,7.55
2024-01-05T07:12:49.527Z,7.59
2024-01-05T07:15:17.093Z,7.65
2024-01-05T07:17:45.465Z,7.71
2024-01-05T07:20:16.931Z,7.78
2024-01-05T07:22:44.760Z,7.84
